createdAt,value
2023-05-02T00:01:18.850Z,15.60
2023-05-02T00:03:45.969Z,15.59
2023-05-02T00:06:13.069Z,15.61
2023-05-02T00:08:39.868Z,15.64
2023-05-02T00:11:06.560Z,15.65
2023-05-02T00:13:33.165Z,15.64
2023-05-02T00:15:59.856Z,15.62
2023-05-02T00:18:26.482Z,15.62
2023-05-02T00:20:53.054Z,15.57
2023-05-02T00:23:19.711Z,15.53
2023-05-02T00:25:46.614Z,15.50
2023-05-02T00:28:13.985Z,15.44
2023-05-02T00:30:47.422Z,15.44
2023-05-02T00:33:15.910Z,15.28
2023-05-02T00:35:42.540Z,15.23
2023-05-02T00:38:09.542Z,15.12
2023-05-02T00:40:51.310Z,15.09
2023-05-02T00:43:18.394Z,15.01
2023-05-02T00:45:46.489Z,14.92
2023-05-02T00:48:13.791Z,14.89
2023-05-02T00:50:43.641Z,14.82
2023-05-02T00:53:11.088Z,14.78
2023-05-02T00:55:38.095Z,14.75
2023-05-02T00:58:14.584Z,14.67
2023-05-02T01:01:12.429Z,14.67
2023-05-02T01:04:06.153Z,14.66
2023-05-02T01:06:50.797Z,14.68
2023-05-02T01:09:58.765Z,14.67
2023-05-02T01:12:41.885Z,14.69
2023-05-02T01:15:14.572Z,14.62
2023-05-02T01:17:42.645Z,14.60
2023-05-02T01:20:14.594Z,14.58
2023-05-02T01:22:41.830Z,14.58
2023-05-02T01:25:20.797Z,14.55
2023-05-02T01:28:14.856Z,14.53
2023-05-02T01:30:44.790Z,14.47
2023-05-02T01:33:15.358Z,14.47
2023-05-02T01:35:44.163Z,14.45
2023-05-02T01:38:16.096Z,14.43
2023-05-02T01:40:46.031Z,14.45
2023-05-02T01:43:16.601Z,14.43
2023-05-02T01:45:47.351Z,14.40
2023-05-02T01:48:17.913Z,14.42
2023-05-02T01:50:47.818Z,14.40
2023-05-02T01:53:15.516Z,14.40
2023-05-02T01:55:44.967Z,14.39
2023-05-02T01:58:14.214Z,14.34
2023-05-02T02:00:42.055Z,14.33
2023-05-02T02:03:10.525Z,14.31
2023-05-02T02:05:37.846Z,14.32
2023-05-02T02:08:04.875Z,14.25
2023-05-02T02:10:36.436Z,14.32
2023-05-02T02:13:24.566Z,14.28
2023-05-02T02:15:58.113Z,14.30
2023-05-02T02:18:27.834Z,14.29
2023-05-02T02:20:56.043Z,14.31
2023-05-02T02:23:29.021Z,14.25
2023-05-02T02:25:57.109Z,14.23
2023-05-02T02:28:23.922Z,14.17
2023-05-02T02:30:50.844Z,14.13
2023-05-02T02:33:18.667Z,14.04
2023-05-02T02:36:02.165Z,13.97
2023-05-02T02:38:42.263Z,13.92
2023-05-02T02:41:22.450Z,13.84
2023-05-02T02:44:16.874Z,13.83
2023-05-02T02:47:06.861Z,13.84
2023-05-02T02:49:45.888Z,13.78
2023-05-02T02:52:53.695Z,13.75
2023-05-02T02:55:32.004Z,13.68
2023-05-02T02:58:30.837Z,13.63
2023-05-02T03:01:01.772Z,13.53
2023-05-02T03:03:30.186Z,13.47
2023-05-02T03:05:57.440Z,13.41
2023-05-02T03:08:24.878Z,13.33
2023-05-02T03:10:51.651Z,13.33
2023-05-02T03:13:18.397Z,13.27
2023-05-02T03:16:06.806Z,13.24
2023-05-02T03:18:33.839Z,13.19
2023-05-02T03:21:02.982Z,13.11
2023-05-02T03:23:29.830Z,13.13
2023-05-02T03:25:56.512Z,13.09
2023-05-02T03:28:23.165Z,13.05
2023-05-02T03:30:49.816Z,13.04
2023-05-02T03:33:16.630Z,13.00
2023-05-02T03:35:43.327Z,12.98
2023-05-02T03:38:09.929Z,12.98
2023-05-02T03:40:36.564Z,13.06
2023-05-02T03:43:03.201Z,13.01
2023-05-02T03:45:29.891Z,12.97
2023-05-02T03:47:56.548Z,12.99
2023-05-02T03:50:23.596Z,12.94
2023-05-02T03:52:50.588Z,12.91
2023-05-02T03:55:17.240Z,12.88
2023-05-02T03:57:43.954Z,12.80
2023-05-02T04:00:11.289Z,12.79
2023-05-02T04:02:38.323Z,12.76
2023-05-02T04:05:05.511Z,12.80
2023-05-02T04:07:32.230Z,12.85
2023-05-02T04:09:59.269Z,12.82
2023-05-02T04:12:26.292Z,12.80
2023-05-02T04:14:52.898Z,12.76
2023-05-02T04:17:19.644Z,12.75
2023-05-02T04:19:46.326Z,12.75
2023-05-02T04:22:12.966Z,12.74
2023-05-02T04:24:39.579Z,12.82
2023-05-02T04:27:06.212Z,12.85
2023-05-02T04:29:32.895Z,12.91
2023-05-02T04:31:59.558Z,12.83
2023-05-02T04:34:26.292Z,12.81
2023-05-02T04:36:52.882Z,12.80
2023-05-02T04:39:25.573Z,12.83
2023-05-02T04:41:52.276Z,12.87
2023-05-02T04:44:18.870Z,12.93
2023-05-02T04:46:46.272Z,12.91
2023-05-02T04:49:14.862Z,12.94
2023-05-02T04:51:41.690Z,12.95
2023-05-02T04:54:08.390Z,12.97
2023-05-02T04:56:34.957Z,12.99
2023-05-02T04:59:01.633Z,13.09
2023-05-02T05:01:28.426Z,13.10
2023-05-02T05:03:55.700Z,13.12
2023-05-02T05:06:22.897Z,13.16
2023-05-02T05:08:52.746Z,13.20
2023-05-02T05:11:19.408Z,13.21
2023-05-02T05:13:46.389Z,13.23
2023-05-02T05:16:13.496Z,13.28
2023-05-02T05:18:43.274Z,13.35
2023-05-02T05:21:12.823Z,13.43
2023-05-02T05:23:39.601Z,13.61
2023-05-02T05:26:16.679Z,13.64
2023-05-02T05:28:44.058Z,13.70
2023-05-02T05:31:16.015Z,13.78
2023-05-02T05:33:43.913Z,13.84
2023-05-02T05:36:12.817Z,13.97
2023-05-02T05:38:39.721Z,14.07
2023-05-02T05:41:07.931Z,14.35
2023-05-02T05:43:38.375Z,14.67
2023-05-02T05:46:05.410Z,14.90
2023-05-02T05:48:32.021Z,15.03
2023-05-02T05:50:58.674Z,15.08
2023-05-02T05:53:25.811Z,15.14
2023-05-02T05:55:52.402Z,15.27
2023-05-02T05:58:19.067Z,15.39
2023-05-02T06:00:48.134Z,15.57
2023-05-02T06:03:15.069Z,15.77
2023-05-02T06:05:42.337Z,15.90
2023-05-02T06:08:09.093Z,16.03
2023-05-02T06:10:35.759Z,16.22
2023-05-02T06:13:02.366Z,16.32
2023-05-02T06:15:28.963Z,16.44
2023-05-02T06:17:55.821Z,16.61
2023-05-02T06:20:22.463Z,16.74
2023-05-02T06:22:48.920Z,16.97
2023-05-02T06:25:15.510Z,17.07
2023-05-02T06:27:42.270Z,17.22
2023-05-02T06:30:09.358Z,17.29
2023-05-02T06:32:36.077Z,17.39
2023-05-02T06:35:02.854Z,17.62
2023-05-02T06:37:33.933Z,17.81
2023-05-02T06:40:00.953Z,17.98
2023-05-02T06:42:27.730Z,18.12
2023-05-02T06:44:54.338Z,18.17
2023-05-02T06:47:24.533Z,18.30
2023-05-02T06:49:54.260Z,18.56
2023-05-02T06:52:20.918Z,18.77
2023-05-02T06:54:47.620Z,18.93
2023-05-02T06:57:14.356Z,19.12
2023-05-02T06:59:41.094Z,19.18
2023-05-02T07:02:07.728Z,19.34
2023-05-02T07:04:37.263Z,19.50
2023-05-02T07:07:04.187Z,19.58
2023-05-02T07:09:32.738Z,19.69
2023-05-02T07:11:59.343Z,19.81
2023-05-02T07:14:25.944Z,19.83
2023-05-02T07:16:53.726Z,19.90
2023-05-02T07:19:20.511Z,19.95
2023-05-02T07:21:47.212Z,20.00
2023-05-02T07:24:13.888Z,19.97
2023-05-02T07:26:41.122Z,19.99
2023-05-02T07:29:08.838Z,20.01
2023-05-02T07:31:35.436Z,19.89
2023-05-02T07:34:02.088Z,19.94
2023-05-02T07:36:28.689Z,19.94
2023-05-02T07:38:55.725Z,19.92
2023-05-02T07:41:22.356Z,19.89
2023-05-02T07:43:49.039Z,19.87
2023-05-02T07:46:15.718Z,19.79
2023-05-02T07:48:42.978Z,19.76
2023-05-02T07:51:10.819Z,19.71
2023-05-02T07:53:37.425Z,19.61
2023-05-02T07:56:07.026Z,19.47
2023-05-02T07:58:33.804Z,19.37
2023-05-02T08:01:00.685Z,19.37
2023-05-02T08:03:28.360Z,19.35
2023-05-02T08:05:55.063Z,19.28
2023-05-02T08:08:21.801Z,19.30
2023-05-02T08:10:48.501Z,19.22
2023-05-02T08:13:15.100Z,19.13
2023-05-02T08:15:41.741Z,19.03
2023-05-02T08:18:08.523Z,19.04
2023-05-02T08:20:37.504Z,18.87
2023-05-02T08:23:04.123Z,18.72
2023-05-02T08:25:30.775Z,18.61
2023-05-02T08:27:57.473Z,18.50
2023-05-02T08:30:24.614Z,18.55
2023-05-02T08:32:51.298Z,18.37
2023-05-02T08:35:18.129Z,18.28
2023-05-02T08:37:47.596Z,18.28
2023-05-02T08:40:24.672Z,18.32
2023-05-02T08:42:57.521Z,18.16
2023-05-02T08:45:24.863Z,18.09
2023-05-02T08:47:52.735Z,18.16
2023-05-02T08:50:20.592Z,18.20
2023-05-02T08:52:48.915Z,18.21
2023-05-02T08:55:15.864Z,18.07
2023-05-02T08:57:43.720Z,18.09
2023-05-02T09:00:11.563Z,18.06
2023-05-02T09:02:59.451Z,18.09
2023-05-02T09:05:26.340Z,18.13
2023-05-02T09:07:53.054Z,18.21
2023-05-02T09:10:21.728Z,18.25
2023-05-02T09:12:48.540Z,18.29
2023-05-02T09:15:20.583Z,18.35
2023-05-02T09:17:49.083Z,18.40
2023-05-02T09:20:16.939Z,18.40
2023-05-02T09:22:53.125Z,18.38
2023-05-02T09:25:20.797Z,18.34
2023-05-02T09:27:55.317Z,18.33
2023-05-02T09:30:25.477Z,18.40
2023-05-02T09:32:55.658Z,18.37
2023-05-02T09:35:26.186Z,18.29
2023-05-02T09:37:54.786Z,18.21
2023-05-02T09:40:22.207Z,18.18
2023-05-02T09:42:49.091Z,18.17
2023-05-02T09:45:24.748Z,18.11
2023-05-02T09:47:52.429Z,18.13
2023-05-02T09:50:41.389Z,18.10
2023-05-02T09:53:12.193Z,18.13
2023-05-02T09:55:39.831Z,18.15
2023-05-02T09:58:06.853Z,18.17
2023-05-02T10:00:44.387Z,18.18
2023-05-02T10:03:11.527Z,18.17
2023-05-02T10:05:39.202Z,18.23
2023-05-02T10:08:07.631Z,18.29
2023-05-02T10:10:38.008Z,18.32
2023-05-02T10:13:05.917Z,18.36
2023-05-02T10:15:33.968Z,18.51
2023-05-02T10:18:07.402Z,18.55
2023-05-02T10:20:37.308Z,18.56
2023-05-02T10:23:06.139Z,18.65
2023-05-02T10:25:33.483Z,18.72
2023-05-02T10:28:00.334Z,18.80
2023-05-02T10:30:27.196Z,18.88
2023-05-02T10:32:56.565Z,18.95
2023-05-02T10:35:25.828Z,19.12
2023-05-02T10:37:53.645Z,19.24
2023-05-02T10:40:20.477Z,19.31
2023-05-02T10:42:51.341Z,19.35
2023-05-02T10:45:30.273Z,19.40
2023-05-02T10:48:25.454Z,19.44
2023-05-02T10:50:56.283Z,19.51
2023-05-02T10:53:44.903Z,19.61
2023-05-02T10:56:22.022Z,19.75
2023-05-02T10:58:50.728Z,19.87
2023-05-02T11:01:29.721Z,19.99
2023-05-02T11:04:10.384Z,20.08
2023-05-02T11:06:59.277Z,20.18
2023-05-02T11:09:26.788Z,20.23
2023-05-02T11:11:56.541Z,20.26
2023-05-02T11:14:26.180Z,20.32
2023-05-02T11:17:01.703Z,20.30
2023-05-02T11:19:31.203Z,20.33
2023-05-02T11:22:27.134Z,20.38
2023-05-02T11:24:54.465Z,20.46
2023-05-02T11:27:38.587Z,20.56
2023-05-02T11:30:09.800Z,20.64
2023-05-02T11:32:45.733Z,20.72
2023-05-02T11:35:19.525Z,20.83
2023-05-02T11:37:58.894Z,20.92
2023-05-02T11:40:27.209Z,20.91
2023-05-02T11:42:54.600Z,20.99
2023-05-02T11:45:21.702Z,21.01
2023-05-02T11:47:49.576Z,20.99
2023-05-02T11:50:16.947Z,21.03
2023-05-02T11:52:45.438Z,20.99
2023-05-02T11:55:13.753Z,21.04
2023-05-02T11:57:41.069Z,21.11
2023-05-02T12:00:08.321Z,21.10
2023-05-02T12:02:46.139Z,21.05
2023-05-02T12:05:14.271Z,21.08
2023-05-02T12:07:45.925Z,21.12
2023-05-02T12:10:13.856Z,21.18
2023-05-02T12:12:44.100Z,21.21
2023-05-02T12:15:18.286Z,21.23
2023-05-02T12:17:52.338Z,21.25
2023-05-02T12:20:19.316Z,21.27
2023-05-02T12:22:46.746Z,21.32
2023-05-02T12:25:13.891Z,21.38
2023-05-02T12:27:40.648Z,21.41
2023-05-02T12:30:08.858Z,21.46
2023-05-02T12:32:36.719Z,21.47
2023-05-02T12:35:04.063Z,21.46
2023-05-02T12:37:30.801Z,21.50
2023-05-02T12:39:57.499Z,21.52
2023-05-02T12:42:26.085Z,21.52
2023-05-02T12:44:53.621Z,21.59
2023-05-02T12:47:22.730Z,21.58
2023-05-02T12:49:53.189Z,21.64
2023-05-02T12:52:59.192Z,21.66
2023-05-02T12:55:29.429Z,21.65
2023-05-02T12:58:25.548Z,21.64
2023-05-02T13:00:52.281Z,21.64
2023-05-02T13:03:18.954Z,21.69
2023-05-02T13:05:45.696Z,21.68
2023-05-02T13:08:12.341Z,21.72
2023-05-02T13:10:38.993Z,21.69
2023-05-02T13:13:05.673Z,21.66
2023-05-02T13:15:32.546Z,21.65
2023-05-02T13:17:59.259Z,21.72
2023-05-02T13:20:26.251Z,21.70
2023-05-02T13:22:52.867Z,21.70
2023-05-02T13:25:19.438Z,21.69
2023-05-02T13:27:46.228Z,21.66
2023-05-02T13:30:15.064Z,21.63
2023-05-02T13:32:41.807Z,21.61
2023-05-02T13:35:09.541Z,21.60
2023-05-02T13:37:36.290Z,21.56
2023-05-02T13:40:03.079Z,21.55
2023-05-02T13:42:29.921Z,21.52
2023-05-02T13:44:56.559Z,21.56
2023-05-02T13:47:23.470Z,21.54
2023-05-02T13:49:53.306Z,21.48
2023-05-02T13:52:23.031Z,21.46
2023-05-02T13:54:49.612Z,21.41
2023-05-02T13:57:16.285Z,21.30
2023-05-02T13:59:42.900Z,21.24
2023-05-02T14:02:09.655Z,21.24
2023-05-02T14:04:36.487Z,21.22
2023-05-02T14:07:03.100Z,21.17
2023-05-02T14:09:29.755Z,21.10
2023-05-02T14:11:56.711Z,21.14
2023-05-02T14:14:23.290Z,21.15
2023-05-02T14:16:50.570Z,21.11
2023-05-02T14:19:18.099Z,21.07
2023-05-02T14:21:44.694Z,20.98
2023-05-02T14:24:14.697Z,20.93
2023-05-02T14:26:41.292Z,20.98
2023-05-02T14:29:08.715Z,20.99
2023-05-02T14:31:35.721Z,21.00
2023-05-02T14:34:02.849Z,20.98
2023-05-02T14:36:29.504Z,20.96
2023-05-02T14:38:56.121Z,20.88
2023-05-02T14:41:24.139Z,20.80
2023-05-02T14:43:52.119Z,20.85
2023-05-02T14:46:18.764Z,20.78
2023-05-02T14:48:45.612Z,20.76
2023-05-02T14:51:12.229Z,20.67
2023-05-02T14:53:39.332Z,20.64
2023-05-02T14:56:06.317Z,20.60
2023-05-02T14:58:32.979Z,20.57
2023-05-02T15:00:59.672Z,20.51
2023-05-02T15:03:26.529Z,20.46
2023-05-02T15:05:53.365Z,20.48
2023-05-02T15:08:19.929Z,20.46
2023-05-02T15:10:46.625Z,20.32
2023-05-02T15:13:13.463Z,20.23
2023-05-02T15:15:40.159Z,20.17
2023-05-02T15:18:06.856Z,20.14
2023-05-02T15:20:33.505Z,20.05
2023-05-02T15:23:03.453Z,20.09
2023-05-02T15:25:31.018Z,20.04
2023-05-02T15:27:57.691Z,20.02
2023-05-02T15:30:24.996Z,19.97
2023-05-02T15:32:51.735Z,19.90
2023-05-02T15:35:18.404Z,19.84
2023-05-02T15:37:44.991Z,19.83
2023-05-02T15:40:12.199Z,19.82
2023-05-02T15:42:38.812Z,19.77
2023-05-02T15:45:06.232Z,19.73
2023-05-02T15:47:32.891Z,19.69
2023-05-02T15:50:00.291Z,19.63
2023-05-02T15:52:27.181Z,19.62
2023-05-02T15:54:56.146Z,19.60
2023-05-02T15:57:23.096Z,19.63
2023-05-02T15:59:50.207Z,19.55
2023-05-02T16:02:16.908Z,19.50
2023-05-02T16:04:46.566Z,19.42
2023-05-02T16:07:13.253Z,19.37
2023-05-02T16:09:40.297Z,19.39
2023-05-02T16:12:07.389Z,19.37
2023-05-02T16:14:34.913Z,19.32
2023-05-02T16:17:01.792Z,19.32
2023-05-02T16:19:28.445Z,19.31
2023-05-02T16:21:55.078Z,19.30
2023-05-02T16:24:21.802Z,19.26
2023-05-02T16:26:48.498Z,19.23
2023-05-02T16:29:15.102Z,19.21
2023-05-02T16:31:44.220Z,19.16
2023-05-02T16:34:11.298Z,19.13
2023-05-02T16:36:37.914Z,19.06
2023-05-02T16:39:04.602Z,19.04
2023-05-02T16:41:31.310Z,18.98
2023-05-02T16:43:57.944Z,18.90
2023-05-02T16:46:24.648Z,18.86
2023-05-02T16:48:51.277Z,18.83
2023-05-02T16:51:17.942Z,18.87
2023-05-02T16:53:46.303Z,18.87
2023-05-02T16:56:13.257Z,18.85
2023-05-02T16:58:39.905Z,18.76
2023-05-02T17:01:06.692Z,18.78
2023-05-02T17:03:33.378Z,18.76
2023-05-02T17:06:01.980Z,18.77
2023-05-02T17:08:29.079Z,18.68
2023-05-02T17:10:56.289Z,18.66
2023-05-02T17:13:22.997Z,18.60
2023-05-02T17:15:50.146Z,18.54
2023-05-02T17:18:16.882Z,18.49
2023-05-02T17:20:45.994Z,18.45
2023-05-02T17:23:12.929Z,18.35
2023-05-02T17:25:39.543Z,18.33
2023-05-02T17:28:06.529Z,18.28
2023-05-02T17:30:34.090Z,18.23
2023-05-02T17:33:00.727Z,18.18
2023-05-02T17:35:27.559Z,18.07
2023-05-02T17:37:55.409Z,18.04
2023-05-02T17:40:22.093Z,17.99
2023-05-02T17:42:49.082Z,17.95
2023-05-02T17:45:19.095Z,17.89
2023-05-02T17:47:45.857Z,17.83
2023-05-02T17:50:14.267Z,17.73
2023-05-02T17:52:41.063Z,17.66
2023-05-02T17:55:08.804Z,17.62
2023-05-02T17:57:37.607Z,17.61
2023-05-02T18:00:07.735Z,17.58
2023-05-02T18:02:37.137Z,17.56
2023-05-02T18:05:05.009Z,17.52
2023-05-02T18:07:31.900Z,17.43
2023-05-02T18:10:03.735Z,17.42
2023-05-02T18:12:32.458Z,17.41
2023-05-02T18:14:59.161Z,17.38
2023-05-02T18:17:27.046Z,17.35
2023-05-02T18:19:53.827Z,17.36
2023-05-02T18:22:21.762Z,17.40
2023-05-02T18:24:49.839Z,17.33
2023-05-02T18:27:17.785Z,17.32
2023-05-02T18:29:44.477Z,17.32
2023-05-02T18:32:11.248Z,17.30
2023-05-02T18:34:39.072Z,17.23
2023-05-02T18:37:05.945Z,17.19
2023-05-02T18:39:33.764Z,17.18
2023-05-02T18:42:04.489Z,17.19
2023-05-02T18:44:33.902Z,17.12
2023-05-02T18:47:01.149Z,17.08
2023-05-02T18:49:27.821Z,17.10
2023-05-02T18:51:57.356Z,17.11
2023-05-02T18:54:24.409Z,17.08
2023-05-02T18:56:51.069Z,17.08
2023-05-02T18:59:20.302Z,17.04
2023-05-02T19:01:50.074Z,17.01
2023-05-02T19:04:16.861Z,16.98
2023-05-02T19:06:43.712Z,16.98
2023-05-02T19:09:12.498Z,16.96
2023-05-02T19:11:39.948Z,16.96
2023-05-02T19:14:06.664Z,16.95
2023-05-02T19:16:35.031Z,16.95
2023-05-02T19:19:02.254Z,16.94
2023-05-02T19:21:28.941Z,16.95
2023-05-02T19:23:56.703Z,16.95
2023-05-02T19:26:25.201Z,16.88
2023-05-02T19:28:51.987Z,16.83
2023-05-02T19:31:20.427Z,16.69
2023-05-02T19:33:51.996Z,16.64
2023-05-02T19:36:19.895Z,16.65
2023-05-02T19:38:58.304Z,16.61
2023-05-02T19:41:28.061Z,16.57
2023-05-02T19:43:58.998Z,16.59
2023-05-02T19:46:30.322Z,16.59
2023-05-02T19:48:57.110Z,16.46
2023-05-02T19:51:25.790Z,16.42
2023-05-02T19:53:53.877Z,16.32
2023-05-02T19:56:21.628Z,16.31
2023-05-02T19:58:48.213Z,16.32
2023-05-02T20:01:15.024Z,16.24
2023-05-02T20:03:41.805Z,16.20
2023-05-02T20:06:08.685Z,16.16
2023-05-02T20:08:35.564Z,16.08
2023-05-02T20:11:02.332Z,16.08
2023-05-02T20:13:29.023Z,16.00
2023-05-02T20:15:55.646Z,15.94
2023-05-02T20:18:22.374Z,15.88
2023-05-02T20:20:49.021Z,15.88
2023-05-02T20:23:16.152Z,15.78
2023-05-02T20:25:45.689Z,15.74
2023-05-02T20:28:12.287Z,15.71
2023-05-02T20:30:43.468Z,15.62
2023-05-02T20:33:16.159Z,15.58
2023-05-02T20:35:44.173Z,15.54
2023-05-02T20:38:11.272Z,15.46
2023-05-02T20:40:40.075Z,15.45
2023-05-02T20:43:06.805Z,15.41
2023-05-02T20:45:33.442Z,15.47
2023-05-02T20:48:00.150Z,15.45
2023-05-02T20:50:27.214Z,15.47
2023-05-02T20:52:54.470Z,15.46
2023-05-02T20:55:23.067Z,15.45
2023-05-02T20:57:53.508Z,15.46
2023-05-02T21:00:23.781Z,15.41
2023-05-02T21:02:50.677Z,15.39
2023-05-02T21:05:17.500Z,15.38
2023-05-02T21:07:44.887Z,15.27
2023-05-02T21:10:15.083Z,15.31
2023-05-02T21:12:41.689Z,15.19
2023-05-02T21:15:08.534Z,15.16
2023-05-02T21:17:35.164Z,15.07
2023-05-02T21:20:02.186Z,15.05
2023-05-02T21:22:29.187Z,15.13
2023-05-02T21:27:23.121Z,15.05
2023-05-02T21:29:49.979Z,14.95
2023-05-02T21:32:16.752Z,14.92
2023-05-02T21:34:43.410Z,14.82
2023-05-02T21:37:10.015Z,14.79
2023-05-02T21:39:38.632Z,14.82
2023-05-02T21:42:05.684Z,14.74
2023-05-02T21:44:32.279Z,14.73
2023-05-02T21:46:59.010Z,14.63
2023-05-02T21:49:25.774Z,14.62
2023-05-02T21:51:52.388Z,14.45
2023-05-02T21:54:18.958Z,14.39
2023-05-02T21:56:45.537Z,14.38
2023-05-02T21:59:12.154Z,14.36
2023-05-02T22:01:38.816Z,14.39
2023-05-02T22:04:05.697Z,14.30
2023-05-02T22:06:33.548Z,14.31
2023-05-02T22:09:00.261Z,14.25
2023-05-02T22:11:28.628Z,14.20
2023-05-02T22:13:55.305Z,14.21
2023-05-02T22:16:22.105Z,14.16
2023-05-02T22:18:49.689Z,14.18
2023-05-02T22:21:16.386Z,14.13
2023-05-02T22:23:43.041Z,14.08
2023-05-02T22:26:09.730Z,14.08
2023-05-02T22:28:39.268Z,14.09
2023-05-02T22:31:06.035Z,14.06
2023-05-02T22:33:32.771Z,14.02
2023-05-02T22:35:59.445Z,13.95
2023-05-02T22:38:28.745Z,13.93
2023-05-02T22:40:55.444Z,13.90
2023-05-02T22:43:22.089Z,13.89
2023-05-02T22:45:51.321Z,13.87
2023-05-02T22:48:18.278Z,13.91
2023-05-02T22:50:48.805Z,13.84
2023-05-02T22:53:15.776Z,13.82
2023-05-02T22:55:42.662Z,13.76
2023-05-02T22:58:09.287Z,13.75
2023-05-02T23:00:36.595Z,13.75
2023-05-02T23:03:06.119Z,13.65
2023-05-02T23:05:32.803Z,13.65
2023-05-02T23:07:59.414Z,13.65
2023-05-02T23:10:26.102Z,13.57
2023-05-02T23:12:52.732Z,13.62
2023-05-02T23:15:19.527Z,13.60
2023-05-02T23:17:46.166Z,13.56
2023-05-02T23:20:12.946Z,13.63
2023-05-02T23:22:46.258Z,13.66
2023-05-02T23:25:15.190Z,13.67
2023-05-02T23:27:41.931Z,13.68
2023-05-02T23:30:11.669Z,13.69
2023-05-02T23:32:39.519Z,13.70
2023-05-02T23:35:06.729Z,13.67
2023-05-02T23:37:33.775Z,13.66
2023-05-02T23:40:01.123Z,13.65
2023-05-02T23:42:29.909Z,13.59
2023-05-02T23:44:57.928Z,13.59
2023-05-02T23:47:27.166Z,13.58
2023-05-02T23:49:54.182Z,13.53
2023-05-02T23:52:21.109Z,13.53
2023-05-02T23:54:47.876Z,13.45
2023-05-02T23:57:14.498Z,13.43
2023-05-02T23:59:41.218Z,13.31
